Rockwell, NC (28138)

1:56 AM EDT on March 27, 2017 (GMT -0400)
RockGrove | | Change Station

Elev 856 ft 35.55 °N, 80.48 °W | Updated 11 minutes ago

Rain
Rain
60.9 °F
Feels Like 60.9 °F
N
4.0
Wind Variable Wind from SSW
Gusts 9.0 mph

Today
High -- | Low -- °F
--% Chance of Precip.
Yesterday
High -- | Low -- °F
Precip. -- in
Pressure 30.12 in
Visibility 10.0 miles
Clouds Scattered Clouds 2800 ft
Mostly Cloudy 6000 ft
Overcast 7500 ft
Dew Point 56 °F
Humidity 83%
Rainfall 0.00 in
Snow Depth Not available.
7:14 AM 7:39 PM
Waning Crescent, 1% visible
METAR KRUQ 270540Z AUTO 29005KT 10SM -RA SCT028 BKN060 OVC075 16/14 A3012 RMK AO2 P0001 T01570136
Pressure 30.12 in
Visibility 10.0 miles
Clouds Scattered Clouds 2800 ft
Mostly Cloudy 6000 ft
Overcast 7500 ft
Dew Point 56 °F
Humidity 83%
Rainfall 0.00 in
Snow Depth Not available.
7:14 AM 7:39 PM
Waning Crescent, 1% visible
METAR KRUQ 270540Z AUTO 29005KT 10SM -RA SCT028 BKN060 OVC075 16/14 A3012 RMK AO2 P0001 T01570136

Get Severe Weather Alerts

Thanks for signing up!

Be on the lookout for a verification email in your inbox.

You'll start receiving the daily forecast at 8 AM.

×

10-Day Weather Forecast

Almanac

Astronomy

Mar. 27, 2017 Rise Set
Actual Time
Civil Twilight
Nautical Twilight
Astronomical Twilight
Moon
Length of Visible Light
Length of Day
Tomorrow will be .
, % of the Moon is Illuminated

Today's Extremes

State Highs State Lows

Community

WunderPhotos

Upload Photos

1,962,540 photos uploaded!

WunderBlog® & News

Nearby

Air Quality

  Air Quality AQ Index Pollutant
Not available.

Snow Depth

Station Depth Elevation

Earthquake Activity

City Distance Mag. Time & Date
Minimum magnitude displayed is 2.5.

Earthquake Activity

City Distance Mag. Time & Date
Minimum magnitude displayed is 2.5.

Coastal Water Temperatures

Place Temperature

Stations

Nearby Weather Stations

Station Location Temp. Windchill Dew Point Humidity Wind Precip. Elev Updated Type
                   

Watches & Warnings

There are currently no watches in effect.